createdAt,value
2022-10-28T00:01:22.450Z,81.01
2022-10-28T00:03:57.797Z,80.99
2022-10-28T00:06:30.603Z,81.16
2022-10-28T00:08:57.894Z,80.96
2022-10-28T00:11:31.953Z,80.78
2022-10-28T00:14:01.417Z,80.82
2022-10-28T00:16:31.457Z,81.01
2022-10-28T00:19:01.681Z,81.02
2022-10-28T00:21:31.840Z,81.13
2022-10-28T00:23:59.130Z,81.17
2022-10-28T00:26:28.720Z,81.27
2022-10-28T00:29:04.424Z,81.23
2022-10-28T00:31:31.924Z,80.96
2022-10-28T00:34:00.162Z,80.96
2022-10-28T00:36:29.112Z,81.18
2022-10-28T00:38:56.658Z,81.03
2022-10-28T00:41:33.040Z,80.75
2022-10-28T00:44:04.668Z,81.21
2022-10-28T00:46:54.899Z,81.17
2022-10-28T00:49:26.779Z,81.04
2022-10-28T00:51:56.633Z,80.79
2022-10-28T00:54:23.652Z,81.11
2022-10-28T00:56:53.808Z,81.25
2022-10-28T00:59:26.368Z,80.72
2022-10-28T01:01:53.841Z,80.85
2022-10-28T01:19:54.796Z,80.95
2022-10-28T01:22:23.559Z,81.10
2022-10-28T01:25:23.942Z,80.97
2022-10-28T01:28:21.180Z,81.44
2022-10-28T01:31:11.144Z,81.04
2022-10-28T01:34:26.251Z,81.50
2022-10-28T01:37:12.733Z,81.39
2022-10-28T01:40:04.538Z,81.15
2022-10-28T01:42:42.274Z,81.37
2022-10-28T01:45:25.869Z,81.23
2022-10-28T01:47:59.207Z,81.16
2022-10-28T01:50:40.069Z,81.13
2022-10-28T01:53:08.026Z,81.28
2022-10-28T01:55:38.497Z,81.56
2022-10-28T01:58:06.526Z,81.32
2022-10-28T02:00:34.574Z,81.74
2022-10-28T02:03:01.445Z,81.50
2022-10-28T02:05:45.969Z,81.48
2022-10-28T02:08:18.232Z,81.29
2022-10-28T02:11:21.497Z,81.19
2022-10-28T02:14:17.590Z,81.33
2022-10-28T02:16:48.905Z,81.46
2022-10-28T02:19:29.763Z,81.35
2022-10-28T02:22:15.969Z,81.61
2022-10-28T02:24:54.884Z,81.62
2022-10-28T02:27:50.281Z,81.30
2022-10-28T02:30:46.210Z,81.47
2022-10-28T02:33:28.536Z,81.52
2022-10-28T02:36:05.633Z,81.61
2022-10-28T02:38:38.256Z,81.48
2022-10-28T02:41:13.646Z,81.42
2022-10-28T02:43:46.376Z,81.54
2022-10-28T02:46:19.345Z,81.87
2022-10-28T02:48:50.231Z,81.71
2022-10-28T02:51:20.206Z,81.63
2022-10-28T02:54:00.752Z,81.66
2022-10-28T02:57:04.983Z,81.73
2022-10-28T02:59:31.810Z,81.83
2022-10-28T03:01:58.654Z,81.39
2022-10-28T03:04:25.673Z,81.83
2022-10-28T03:06:52.693Z,81.74
2022-10-28T03:09:19.396Z,81.78
2022-10-28T03:11:46.208Z,81.85
2022-10-28T03:14:15.321Z,81.75
2022-10-28T03:16:42.338Z,81.97
2022-10-28T03:21:35.656Z,81.70
2022-10-28T03:24:02.365Z,81.92
2022-10-28T03:26:29.026Z,81.97
2022-10-28T03:29:03.244Z,81.62
2022-10-28T03:31:29.929Z,81.76
2022-10-28T03:33:56.643Z,82.06
2022-10-28T03:36:23.285Z,81.85
2022-10-28T03:38:59.097Z,81.93
2022-10-28T03:41:25.825Z,82.01
2022-10-28T03:43:52.462Z,81.64
2022-10-28T03:46:19.140Z,81.61
2022-10-28T03:48:45.845Z,81.68
2022-10-28T03:51:12.632Z,81.61
2022-10-28T03:53:39.357Z,81.85
2022-10-28T03:56:08.878Z,81.73
2022-10-28T04:01:25.587Z,81.90
2022-10-28T04:03:52.442Z,82.11
2022-10-28T04:06:19.128Z,82.21
2022-10-28T04:08:45.756Z,82.18
2022-10-28T04:11:12.396Z,82.32
2022-10-28T04:13:39.102Z,82.28
2022-10-28T04:16:06.588Z,82.06
2022-10-28T04:18:33.373Z,82.19
2022-10-28T04:21:00.274Z,82.15
2022-10-28T04:23:27.103Z,82.33
2022-10-28T04:25:57.627Z,82.07
2022-10-28T04:28:24.588Z,82.45
2022-10-28T04:30:51.463Z,82.15
2022-10-28T04:33:18.377Z,82.59
2022-10-28T04:35:45.396Z,82.29
2022-10-28T04:38:12.985Z,82.33
2022-10-28T04:40:39.993Z,82.43
2022-10-28T04:43:09.686Z,82.71
2022-10-28T04:45:37.715Z,82.54
2022-10-28T04:48:04.704Z,82.94
2022-10-28T04:50:31.515Z,82.75
2022-10-28T04:52:59.791Z,82.70
2022-10-28T04:55:26.502Z,82.56
2022-10-28T04:57:57.751Z,82.67
2022-10-28T05:00:25.418Z,82.42
2022-10-28T05:02:52.261Z,82.58
2022-10-28T05:05:19.315Z,82.77
2022-10-28T05:07:46.272Z,82.89
2022-10-28T05:10:15.502Z,82.92
2022-10-28T05:12:43.261Z,82.79
2022-10-28T05:15:11.238Z,82.78
2022-10-28T05:17:43.108Z,82.64
2022-10-28T05:20:11.837Z,82.79
2022-10-28T05:22:38.744Z,83.02
2022-10-28T05:25:05.571Z,82.98
2022-10-28T05:27:32.300Z,82.78
2022-10-28T05:29:59.034Z,82.72
2022-10-28T05:32:26.181Z,82.79
2022-10-28T05:34:52.878Z,82.95
2022-10-28T05:37:19.701Z,82.71
2022-10-28T05:40:15.851Z,82.98
2022-10-28T05:42:42.947Z,82.98
2022-10-28T05:45:10.485Z,82.86
2022-10-28T05:47:39.286Z,82.91
2022-10-28T05:50:10.219Z,83.09
2022-10-28T05:52:36.885Z,82.97
2022-10-28T05:55:04.029Z,82.75
2022-10-28T05:57:34.021Z,82.70
2022-10-28T06:00:00.766Z,82.86
2022-10-28T06:02:27.608Z,83.07
2022-10-28T06:04:54.341Z,82.91
2022-10-28T06:07:24.830Z,83.27
2022-10-28T06:09:51.914Z,82.82
2022-10-28T06:12:17.227Z,83.03
2022-10-28T06:14:44.037Z,82.99
2022-10-28T06:17:10.818Z,83.04
2022-10-28T06:19:37.602Z,83.11
2022-10-28T06:22:04.332Z,83.09
2022-10-28T06:24:31.061Z,83.27
2022-10-28T06:26:57.819Z,83.18
2022-10-28T06:29:24.656Z,83.05
2022-10-28T06:31:51.438Z,83.17
2022-10-28T06:34:18.226Z,83.07
2022-10-28T06:36:44.911Z,83.02
2022-10-28T06:39:11.656Z,83.37
2022-10-28T06:41:38.364Z,83.08
2022-10-28T06:44:05.226Z,83.23
2022-10-28T06:46:33.575Z,83.48
2022-10-28T06:49:03.319Z,83.39
2022-10-28T06:51:30.903Z,83.43
2022-10-28T06:53:57.715Z,83.48
2022-10-28T06:56:24.562Z,83.54
2022-10-28T06:58:52.614Z,83.34
2022-10-28T07:01:19.618Z,83.34
2022-10-28T07:03:47.235Z,83.35
2022-10-28T07:08:46.909Z,83.40
2022-10-28T07:15:16.279Z,83.33
2022-10-28T07:18:23.276Z,83.59
2022-10-28T07:21:49.513Z,83.47
2022-10-28T07:27:37.449Z,83.01
2022-10-28T07:30:07.721Z,83.35
2022-10-28T07:32:34.466Z,83.31
2022-10-28T07:35:01.167Z,82.89
2022-10-28T07:37:29.145Z,83.04
2022-10-28T07:39:55.782Z,83.04
2022-10-28T07:42:22.785Z,82.95
2022-10-28T07:44:49.504Z,82.58
2022-10-28T07:47:17.754Z,82.42
2022-10-28T07:49:44.526Z,82.14
2022-10-28T07:52:11.231Z,82.39
2022-10-28T07:54:38.008Z,82.07
2022-10-28T07:57:04.735Z,82.03
2022-10-28T07:59:31.753Z,81.90
2022-10-28T08:01:58.607Z,81.88
2022-10-28T08:04:25.455Z,81.92
2022-10-28T08:06:52.159Z,81.86
2022-10-28T08:09:18.873Z,81.92
2022-10-28T08:11:45.595Z,81.65
2022-10-28T08:14:12.359Z,81.33
2022-10-28T08:16:39.085Z,81.29
2022-10-28T08:19:07.866Z,80.80
2022-10-28T08:21:34.746Z,80.70
2022-10-28T08:24:01.483Z,80.91
2022-10-28T08:26:28.277Z,80.24
2022-10-28T08:37:07.279Z,80.11
2022-10-28T08:39:34.030Z,80.54
2022-10-28T08:42:34.837Z,80.47
2022-10-28T08:45:18.312Z,80.36
2022-10-28T08:48:15.806Z,80.17
2022-10-28T08:50:49.733Z,80.10
2022-10-28T08:53:18.736Z,80.10
2022-10-28T08:55:50.557Z,79.84
2022-10-28T08:58:26.631Z,79.79
2022-10-28T09:00:55.555Z,79.81
2022-10-28T09:18:53.087Z,79.38
2022-10-28T09:21:25.255Z,79.11
2022-10-28T09:24:00.040Z,78.80
2022-10-28T09:26:33.821Z,78.71
2022-10-28T09:29:21.855Z,78.49
2022-10-28T09:31:53.599Z,78.53
2022-10-28T09:34:39.325Z,78.68
2022-10-28T09:37:19.842Z,78.22
2022-10-28T09:39:49.954Z,77.92
2022-10-28T09:42:25.659Z,77.96
2022-10-28T09:45:17.935Z,77.68
2022-10-28T09:47:48.431Z,77.53
2022-10-28T09:50:21.363Z,77.64
2022-10-28T09:53:12.558Z,77.14
2022-10-28T09:55:39.427Z,77.01
2022-10-28T09:58:06.357Z,76.93
2022-10-28T10:00:33.321Z,76.35
2022-10-28T10:03:00.158Z,76.28
2022-10-28T10:05:27.069Z,75.73
2022-10-28T10:08:20.395Z,75.52
2022-10-28T10:11:04.248Z,75.83
2022-10-28T10:13:35.623Z,75.42
2022-10-28T10:16:07.206Z,75.34
2022-10-28T10:18:34.225Z,75.12
2022-10-28T10:21:01.359Z,74.92
2022-10-28T10:23:32.464Z,74.66
2022-10-28T10:26:06.838Z,74.60
2022-10-28T10:28:39.490Z,74.49
2022-10-28T10:31:07.962Z,74.61
2022-10-28T10:33:36.556Z,74.39
2022-10-28T10:36:03.348Z,74.11
2022-10-28T10:38:31.822Z,73.67
2022-10-28T10:40:58.785Z,73.40
2022-10-28T10:43:34.465Z,73.43
2022-10-28T10:46:08.125Z,73.01
2022-10-28T10:48:38.831Z,72.80
2022-10-28T10:51:08.396Z,72.48
2022-10-28T10:53:35.981Z,71.99
2022-10-28T10:56:05.514Z,72.06
2022-10-28T10:58:38.762Z,71.42
2022-10-28T11:01:07.670Z,70.87
2022-10-28T11:04:03.755Z,70.95
2022-10-28T11:10:22.454Z,69.50
2022-10-28T11:12:57.776Z,69.84
2022-10-28T11:15:26.092Z,69.24
2022-10-28T11:18:03.761Z,69.25
2022-10-28T11:20:44.113Z,69.09
2022-10-28T11:23:35.769Z,68.49
2022-10-28T11:26:06.241Z,68.57
2022-10-28T11:29:01.572Z,68.22
2022-10-28T11:35:17.465Z,67.30
2022-10-28T11:46:39.664Z,66.32
2022-10-28T11:49:50.837Z,65.60
2022-10-28T11:59:54.898Z,64.65
2022-10-28T12:03:09.174Z,64.18
2022-10-28T12:09:30.798Z,63.50
2022-10-28T12:12:50.344Z,63.17
2022-10-28T12:15:41.059Z,62.51
2022-10-28T12:18:45.383Z,61.96
2022-10-28T12:21:24.898Z,61.95
2022-10-28T12:23:53.992Z,61.94
2022-10-28T12:26:21.547Z,62.33
2022-10-28T12:28:57.906Z,62.49
2022-10-28T12:31:29.149Z,62.18
2022-10-28T12:33:57.443Z,62.33
2022-10-28T12:36:32.393Z,62.13
2022-10-28T12:39:19.454Z,62.10
2022-10-28T12:41:53.394Z,61.62
2022-10-28T12:44:21.940Z,61.04
2022-10-28T12:46:57.587Z,61.01
2022-10-28T12:49:32.586Z,60.53
2022-10-28T12:52:16.288Z,60.31
2022-10-28T12:55:04.341Z,60.18
2022-10-28T12:57:34.284Z,59.67
2022-10-28T13:00:17.186Z,60.09
2022-10-28T13:02:51.650Z,59.90
2022-10-28T13:05:27.871Z,59.37
2022-10-28T13:08:27.626Z,59.11
2022-10-28T13:11:40.690Z,59.06
2022-10-28T13:14:13.396Z,59.41
2022-10-28T13:20:50.993Z,58.76
2022-10-28T13:23:40.758Z,58.86
2022-10-28T13:26:26.086Z,58.43
2022-10-28T13:28:56.005Z,58.13
2022-10-28T13:31:45.383Z,58.11
2022-10-28T13:34:33.593Z,58.24
2022-10-28T13:37:03.530Z,58.14
2022-10-28T13:39:31.808Z,58.17
2022-10-28T13:42:13.585Z,58.31
2022-10-28T13:45:01.036Z,57.92
2022-10-28T13:47:31.953Z,58.47
2022-10-28T13:50:08.205Z,58.44
2022-10-28T13:52:39.805Z,58.18
2022-10-28T13:55:27.847Z,58.04
2022-10-28T13:58:03.871Z,58.69
2022-10-28T14:00:35.338Z,58.40
2022-10-28T14:03:03.308Z,58.61
2022-10-28T14:05:36.245Z,58.77
2022-10-28T14:08:08.346Z,58.67
2022-10-28T14:10:38.606Z,59.04
2022-10-28T14:13:20.459Z,58.95
2022-10-28T14:15:50.818Z,59.17
2022-10-28T14:18:43.872Z,59.33
2022-10-28T14:21:10.280Z,59.66
2022-10-28T14:23:40.035Z,59.69
2022-10-28T14:26:06.881Z,60.33
2022-10-28T14:28:33.586Z,60.42
2022-10-28T14:31:12.542Z,60.47
2022-10-28T14:33:42.488Z,60.72
2022-10-28T14:36:18.551Z,60.98
2022-10-28T14:39:03.885Z,60.94
2022-10-28T14:41:49.437Z,60.82
2022-10-28T14:44:25.047Z,60.83
2022-10-28T14:46:54.400Z,60.73
2022-10-28T14:49:24.851Z,60.61
2022-10-28T14:51:52.518Z,61.17
2022-10-28T14:54:26.902Z,61.11
2022-10-28T14:56:55.793Z,61.31
2022-10-28T14:59:37.471Z,61.26
2022-10-28T15:02:12.084Z,61.55
2022-10-28T15:04:41.151Z,62.11
2022-10-28T15:07:14.176Z,62.43
2022-10-28T15:09:43.502Z,62.82
2022-10-28T15:12:12.671Z,63.01
2022-10-28T15:14:52.239Z,63.17
2022-10-28T15:17:25.464Z,63.35
2022-10-28T15:19:54.254Z,63.68
2022-10-28T15:22:30.891Z,64.13
2022-10-28T15:25:04.644Z,64.52
2022-10-28T15:27:36.276Z,65.19
2022-10-28T15:30:16.870Z,65.39
2022-10-28T15:32:43.558Z,65.73
2022-10-28T15:35:28.324Z,66.25
2022-10-28T15:37:55.972Z,66.10
2022-10-28T15:40:31.625Z,66.28
2022-10-28T15:43:02.163Z,66.74
2022-10-28T15:45:31.364Z,66.68
2022-10-28T15:47:59.184Z,67.40
2022-10-28T15:50:33.740Z,67.37
2022-10-28T15:53:09.523Z,67.38
2022-10-28T15:58:34.129Z,67.74
2022-10-28T16:01:01.001Z,67.65
2022-10-28T16:03:42.397Z,68.06
2022-10-28T16:06:41.592Z,68.18
2022-10-28T16:09:34.607Z,68.28
2022-10-28T16:12:11.609Z,68.18
2022-10-28T16:14:43.642Z,68.13
2022-10-28T16:17:17.612Z,68.65
2022-10-28T16:19:55.976Z,68.58
2022-10-28T16:22:25.284Z,68.80
2022-10-28T16:24:53.333Z,68.95
2022-10-28T16:27:22.812Z,68.95
2022-10-28T16:29:49.840Z,68.58
2022-10-28T16:32:28.078Z,68.94
2022-10-28T16:34:58.905Z,68.99
2022-10-28T16:37:31.617Z,69.12
2022-10-28T16:39:58.294Z,69.21
2022-10-28T16:42:25.235Z,69.55
2022-10-28T16:44:52.030Z,69.80
2022-10-28T16:47:20.590Z,69.95
2022-10-28T16:49:52.650Z,69.70
2022-10-28T16:52:25.403Z,69.71
2022-10-28T16:54:52.097Z,69.98
2022-10-28T16:57:20.186Z,70.34
2022-10-28T16:59:47.381Z,70.11
2022-10-28T17:02:25.400Z,70.49
2022-10-28T17:04:52.233Z,70.39
2022-10-28T17:07:18.935Z,70.45
2022-10-28T17:09:45.774Z,70.86
2022-10-28T17:12:14.912Z,70.49
2022-10-28T17:14:41.664Z,70.96
2022-10-28T17:17:09.326Z,70.86
2022-10-28T17:19:36.790Z,71.16
2022-10-28T17:22:08.947Z,71.18
2022-10-28T17:24:36.750Z,71.03
2022-10-28T17:27:03.682Z,70.95
2022-10-28T17:29:30.363Z,71.12
2022-10-28T17:31:57.050Z,71.32
2022-10-28T17:34:23.727Z,71.24
2022-10-28T17:36:50.397Z,71.09
2022-10-28T17:39:20.726Z,71.57
2022-10-28T17:41:50.046Z,71.29
2022-10-28T17:44:16.689Z,71.35
2022-10-28T17:46:43.635Z,71.36
2022-10-28T17:49:10.329Z,71.77
2022-10-28T17:51:37.703Z,71.38
2022-10-28T17:54:07.308Z,71.45
2022-10-28T17:56:34.214Z,71.75
2022-10-28T17:59:04.365Z,71.46
2022-10-28T18:01:33.102Z,71.48
2022-10-28T18:04:00.053Z,71.95
2022-10-28T18:06:26.811Z,71.84
2022-10-28T18:08:53.536Z,71.82
2022-10-28T18:11:20.661Z,71.87
2022-10-28T18:13:49.945Z,72.05
2022-10-28T18:16:19.967Z,72.08
2022-10-28T18:18:46.719Z,71.99
2022-10-28T18:21:14.067Z,72.14
2022-10-28T18:23:41.277Z,72.14
2022-10-28T18:26:10.957Z,72.42
2022-10-28T18:28:38.794Z,72.24
2022-10-28T18:31:15.314Z,72.44
2022-10-28T18:33:42.690Z,72.52
2022-10-28T18:36:14.985Z,72.12
2022-10-28T18:38:41.801Z,72.33
2022-10-28T18:41:19.178Z,72.37
2022-10-28T18:43:54.021Z,72.20
2022-10-28T18:46:30.980Z,72.53
2022-10-28T18:49:09.612Z,72.58
2022-10-28T18:52:02.689Z,72.56
2022-10-28T18:54:33.514Z,72.78
2022-10-28T18:57:10.289Z,72.85
2022-10-28T19:06:50.966Z,73.02
2022-10-28T19:09:17.800Z,72.68
2022-10-28T19:11:44.961Z,72.70
2022-10-28T19:14:12.164Z,72.79
2022-10-28T19:16:48.202Z,72.98
2022-10-28T19:19:21.166Z,73.12
2022-10-28T19:21:49.205Z,72.74
2022-10-28T19:24:23.852Z,72.97
2022-10-28T19:27:01.577Z,72.96
2022-10-28T19:29:42.791Z,73.07
2022-10-28T19:33:14.668Z,73.29
2022-10-28T19:35:16.692Z,73.10
2022-10-28T19:41:47.648Z,73.36
2022-10-28T19:44:17.407Z,73.55
2022-10-28T20:20:30.697Z,74.04
2022-10-28T20:29:36.289Z,74.39
2022-10-28T20:44:08.747Z,74.43
2022-10-28T21:30:03.071Z,73.92
2022-10-28T21:40:16.870Z,73.99
2022-10-28T21:43:00.699Z,73.76
2022-10-28T21:53:58.493Z,73.81
2022-10-28T22:00:20.427Z,73.68
2022-10-28T22:02:54.443Z,73.75
2022-10-28T22:06:07.261Z,73.62
2022-10-28T22:08:36.776Z,73.51
2022-10-28T22:28:43.026Z,73.40
2022-10-28T22:35:25.634Z,73.36
2022-10-28T22:42:02.708Z,72.98
2022-10-28T22:44:29.742Z,72.86
2022-10-28T22:46:56.750Z,73.03
2022-10-28T22:52:51.623Z,73.04
2022-10-28T22:55:18.458Z,72.67
2022-10-28T22:57:48.124Z,72.95
2022-10-28T23:02:55.624Z,72.66
2022-10-28T23:05:25.385Z,72.49
2022-10-28T23:11:23.151Z,72.88
2022-10-28T23:13:51.035Z,72.71
2022-10-28T23:19:37.896Z,72.50
2022-10-28T23:22:06.903Z,72.88
2022-10-28T23:24:37.726Z,72.98
2022-10-28T23:27:11.821Z,72.86
2022-10-28T23:42:53.433Z,72.63
2022-10-28T23:45:54.908Z,72.92
2022-10-28T23:51:59.573Z,72.97
2022-10-28T23:55:15.424Z,72.82
2022-10-28T23:57:43.172Z,72.70
